Time,TemperatureF,DewpointF,PressureIn,WindDirection,WindDirectionDegrees,WindSpeedMPH,WindSpeedGustMPH,Humidity,HourlyPrecipIn,Conditions,Clouds,dailyrainin,SoftwareType,DateUTC
2014-04-19 00:01:00,47.3,45.4,30.22,NE,35,3.5,3.5,93,0.07,RA,,0.00,WeatherDisplay:10.37,2014-04-19 04:01:00,
2014-04-19 00:02:00,47.3,45.4,30.22,NE,41,3.5,3.5,93,0.07,RA,,0.00,WeatherDisplay:10.37,2014-04-19 04:02:00,
2014-04-19 00:03:00,47.3,45.4,30.22,NE,40,3.5,3.5,93,0.07,RA,,0.00,WeatherDisplay:10.37,2014-04-19 04:03:00,
2014-04-19 00:07:00,47.3,45.4,30.22,NE,44,5.0,5.0,93,0.07,RA,,0.01,WeatherDisplay:10.37,2014-04-19 04:07:00,
2014-04-19 00:12:00,47.3,45.4,30.22,NE,44,3.5,3.5,93,0.07,RA,,0.01,WeatherDisplay:10.37,2014-04-19 04:12:00,
2014-04-19 00:17:00,47.3,45.4,30.22,NE,44,0.0,0.0,93,0.07,RA,,0.02,WeatherDisplay:10.37,2014-04-19 04:17:00,
2014-04-19 00:22:00,47.3,45.4,30.22,NE,44,0.0,0.0,93,0.07,RA,,0.02,WeatherDisplay:10.37,2014-04-19 04:22:00,
2014-04-19 00:28:00,47.3,45.4,30.22,NE,44,0.0,0.0,93,0.06,,,0.02,WeatherDisplay:10.37,2014-04-19 04:28:00,
2014-04-19 00:33:00,47.3,45.4,30.21,NE,43,4.6,4.6,93,0.06,RA,,0.03,WeatherDisplay:10.37,2014-04-19 04:33:00,
2014-04-19 00:38:00,47.3,45.4,30.21,NE,42,3.5,3.5,93,0.06,RA,,0.03,WeatherDisplay:10.37,2014-04-19 04:38:00,
2014-04-19 00:43:00,47.3,45.4,30.21,NE,42,0.0,0.0,93,0.06,RA,,0.04,WeatherDisplay:10.37,2014-04-19 04:43:00,
2014-04-19 00:48:00,47.3,45.4,30.21,NE,34,4.6,4.6,93,0.05,RA,,0.04,WeatherDisplay:10.37,2014-04-19 04:48:00,
2014-04-19 00:53:00,47.3,45.7,30.21,NNE,19,4.6,4.6,94,0.04,CLR,,0.04,WeatherDisplay:10.37,2014-04-19 04:53:00,
2014-04-19 00:58:00,47.3,45.4,30.21,NE,43,4.6,4.6,93,0.05,RA,,0.05,WeatherDisplay:10.37,2014-04-19 04:58:00,
2014-04-19 01:03:00,47.3,45.7,30.21,NE,36,5.8,5.8,94,0.05,RA,,0.05,WeatherDisplay:10.37,2014-04-19 05:03:00,
2014-04-19 01:09:00,47.3,45.7,30.21,NE,40,4.6,4.6,94,0.05,RA,,0.06,WeatherDisplay:10.37,2014-04-19 05:09:00,
2014-04-19 01:14:00,47.3,45.7,30.21,NE,37,4.0,4.0,94,0.06,RA,,0.07,WeatherDisplay:10.37,2014-04-19 05:14:00,
2014-04-19 01:20:00,47.3,45.7,30.20,NE,38,3.5,3.5,94,0.06,RA,,0.08,WeatherDisplay:10.37,2014-04-19 05:20:00,
2014-04-19 01:25:00,47.3,45.7,30.20,NNE,28,5.8,5.8,94,0.07,RA,,0.09,WeatherDisplay:10.37,2014-04-19 05:25:00,
2014-04-19 01:30:00,47.3,45.7,30.20,NNE,21,6.9,6.9,94,0.08,RA,,0.10,WeatherDisplay:10.37,2014-04-19 05:30:00,
2014-04-19 01:35:00,47.2,45.6,30.20,NE,42,5.8,5.8,94,0.07,RA,,0.10,WeatherDisplay:10.37,2014-04-19 05:35:00,
2014-04-19 01:36:00,47.2,45.6,30.20,NNE,22,10.4,10.4,94,0.08,RA,,0.11,WeatherDisplay:10.37,2014-04-19 05:36:00,
2014-04-19 01:41:00,47.2,45.6,30.19,ENE,57,3.5,3.5,94,0.07,RA,,0.11,WeatherDisplay:10.37,2014-04-19 05:41:00,
2014-04-19 01:46:00,47.2,45.6,30.19,NNE,19,10.0,10.0,94,0.08,RA,,0.12,WeatherDisplay:10.37,2014-04-19 05:46:00,
2014-04-19 01:51:00,47.1,45.5,30.19,NE,49,5.8,5.8,94,0.08,RA,,0.12,WeatherDisplay:10.37,2014-04-19 05:51:00,
2014-04-19 01:56:00,47.2,45.6,30.19,NE,42,4.6,4.6,94,0.08,RA,,0.13,WeatherDisplay:10.37,2014-04-19 05:56:00,
2014-04-19 02:01:00,47.1,45.5,30.19,North,10,6.9,6.9,94,0.09,RA,,0.14,WeatherDisplay:10.37,2014-04-19 06:01:00,
2014-04-19 02:07:00,47.1,45.5,30.19,NNE,22,6.9,6.9,94,0.08,RA,,0.14,WeatherDisplay:10.37,2014-04-19 06:07:00,
2014-04-19 02:12:00,47.0,45.4,30.19,ENE,63,6.0,6.0,94,0.08,RA,,0.15,WeatherDisplay:10.37,2014-04-19 06:12:00,
2014-04-19 02:17:00,47.0,45.4,30.18,NNE,26,6.9,6.9,94,0.07,RA,,0.15,WeatherDisplay:10.37,2014-04-19 06:17:00,
2014-04-19 02:22:00,47.0,45.4,30.18,NNE,22,7.0,7.0,94,0.07,RA,,0.16,WeatherDisplay:10.37,2014-04-19 06:22:00,
2014-04-19 02:27:00,47.0,45.4,30.18,North,5,6.9,6.9,94,0.07,RA,,0.16,WeatherDisplay:10.37,2014-04-19 06:27:00,
2014-04-19 02:33:00,46.9,45.3,30.17,NE,42,4.0,4.0,94,0.07,RA,,0.17,WeatherDisplay:10.37,2014-04-19 06:33:00,
2014-04-19 02:36:00,47.0,45.4,30.17,NNE,22,7.0,7.0,94,0.06,RA,,0.17,WeatherDisplay:10.37,2014-04-19 06:36:00,
2014-04-19 02:41:00,46.9,45.3,30.17,NNE,24,6.9,6.9,94,0.07,RA,,0.18,WeatherDisplay:10.37,2014-04-19 06:41:00,
2014-04-19 02:46:00,46.9,45.3,30.17,NE,44,5.8,5.8,94,0.06,RA,,0.18,WeatherDisplay:10.37,2014-04-19 06:46:00,
2014-04-19 02:51:00,46.8,45.2,30.17,NNE,32,9.2,9.2,94,0.07,RA,,0.19,WeatherDisplay:10.37,2014-04-19 06:51:00,
2014-04-19 02:56:00,46.8,45.2,30.17,NE,43,5.8,5.8,94,0.06,RA,,0.19,WeatherDisplay:10.37,2014-04-19 06:56:00,
2014-04-19 03:01:00,46.8,45.2,30.17,NE,44,3.5,3.5,94,0.06,RA,,0.20,WeatherDisplay:10.37,2014-04-19 07:01:00,
2014-04-19 03:06:00,46.8,45.2,30.17,NE,49,3.5,3.5,94,0.06,RA,,0.20,WeatherDisplay:10.37,2014-04-19 07:06:00,
2014-04-19 03:11:00,46.8,45.2,30.17,NNE,26,2.3,0.0,94,0.05,CLR,,0.20,WeatherDisplay:10.37,2014-04-19 07:11:00,
2014-04-19 03:16:00,46.8,45.2,30.17,NE,34,6.9,6.9,94,0.06,RA,,0.21,WeatherDisplay:10.37,2014-04-19 07:16:00,
2014-04-19 03:21:00,46.7,45.1,30.17,NE,46,9.2,9.2,94,0.05,RA,,0.21,WeatherDisplay:10.37,2014-04-19 07:21:00,
2014-04-19 03:26:00,46.7,45.1,30.17,NNE,14,5.8,5.8,94,0.05,CLR,,0.21,WeatherDisplay:10.37,2014-04-19 07:26:00,
2014-04-19 03:31:00,46.7,45.1,30.17,NE,38,8.1,8.1,94,0.06,RA,,0.22,WeatherDisplay:10.37,2014-04-19 07:31:00,
2014-04-19 03:36:00,46.7,45.1,30.16,NE,54,5.8,5.8,94,0.05,RA,,0.22,WeatherDisplay:10.37,2014-04-19 07:36:00,
2014-04-19 03:41:00,46.6,45.0,30.16,NE,41,9.2,9.2,94,0.05,RA,,0.23,WeatherDisplay:10.37,2014-04-19 07:41:00,
2014-04-19 03:46:00,46.5,44.9,30.16,NNE,26,5.8,5.8,94,0.05,RA,,0.23,WeatherDisplay:10.37,2014-04-19 07:46:00,
2014-04-19 03:51:00,46.5,44.9,30.16,NNE,32,9.2,9.2,94,0.05,RA,,0.24,WeatherDisplay:10.37,2014-04-19 07:51:00,
2014-04-19 03:56:00,46.5,44.9,30.15,NE,39,4.6,4.6,94,0.05,RA,,0.24,WeatherDisplay:10.37,2014-04-19 07:56:00,
2014-04-19 04:01:00,46.5,44.9,30.15,NE,38,6.9,6.9,94,0.04,,,0.24,WeatherDisplay:10.37,2014-04-19 08:01:00,
2014-04-19 04:06:00,46.4,44.8,30.15,NNE,23,9.2,9.2,94,0.05,RA,,0.25,WeatherDisplay:10.37,2014-04-19 08:06:00,
2014-04-19 04:11:00,46.4,44.8,30.15,ENE,65,6.9,6.9,94,0.05,RA,,0.25,WeatherDisplay:10.37,2014-04-19 08:11:00,
2014-04-19 04:16:00,46.4,44.8,30.15,NE,49,10.4,10.4,94,0.04,CLR,,0.25,WeatherDisplay:10.37,2014-04-19 08:16:00,
2014-04-19 04:21:00,46.4,44.8,30.15,NE,39,10.4,10.4,94,0.04,CLR,,0.25,WeatherDisplay:10.37,2014-04-19 08:21:00,
2014-04-19 04:26:00,46.4,44.8,30.15,NE,48,12.7,12.7,94,0.04,CLR,,0.26,WeatherDisplay:10.37,2014-04-19 08:26:00,
2014-04-19 04:31:00,46.4,44.8,30.15,NNE,26,8.1,8.1,94,0.04,RA,,0.26,WeatherDisplay:10.37,2014-04-19 08:31:00,
2014-04-19 04:36:00,46.4,44.8,30.15,ENE,61,11.5,11.5,94,0.04,RA,,0.26,WeatherDisplay:10.37,2014-04-19 08:36:00,